Time;durP1;ratioP1;P1;durP2;ratioP2;P2;SDS_P1;SDS_P2;PMS_P1;PMS_P2;Temp;Humidity;BMP_temperature;BMP_pressure;BME280_temperature;BME280_humidity;BME280_pressure;Samples;Min_cycle;Max_cycle;Signal;HPM_P1;HPM_P2
2023/10/01 00:00:12;;;;;;;1.98;1.88;;;15.80;99.90;;;;;;5085188;28;20047;-85
2023/10/01 00:02:39;;;;;;;1.95;1.85;;;15.70;99.90;;;;;;5087502;28;21009;-88
2023/10/01 00:05:06;;;;;;;1.90;1.80;;;15.60;99.90;;;;;;5071441;28;20044;-87
2023/10/01 00:07:36;;;;;;;2.13;2.03;;;15.60;99.90;;;;;;5089106;28;20057;-87
2023/10/01 00:10:10;;;;;;;2.00;1.90;;;15.70;99.90;;;;;;5070324;28;20046;-88
2023/10/01 00:12:40;;;;;;;2.10;2.00;;;15.70;99.90;;;;;;5084610;28;20055;-88
2023/10/01 00:15:11;;;;;;;1.98;1.88;;;15.70;99.90;;;;;;5089047;28;20447;-85
2023/10/01 00:17:38;;;;;;;1.95;1.85;;;15.60;99.90;;;;;;5070055;28;20055;-88
2023/10/01 00:20:12;;;;;;;2.08;1.98;;;15.70;99.90;;;;;;5073622;28;20059;-87
2023/10/01 00:22:38;;;;;;;2.05;1.95;;;15.70;99.90;;;;;;5072417;28;20042;-88
2023/10/01 00:25:07;;;;;;;2.05;1.95;;;15.70;99.90;;;;;;5085834;28;20040;-88
2023/10/01 00:27:33;;;;;;;2.10;2.00;;;15.50;99.90;;;;;;5063074;28;20436;-86
2023/10/01 00:29:58;;;;;;;2.05;1.95;;;15.70;99.90;;;;;;5087865;28;20054;-87
2023/10/01 00:32:27;;;;;;;2.20;2.10;;;15.60;99.90;;;;;;5085867;27;20075;-88
2023/10/01 00:34:58;;;;;;;2.08;1.98;;;15.50;99.90;;;;;;5087913;28;20070;-86
2023/10/01 00:37:24;;;;;;;2.15;2.05;;;15.40;99.90;;;;;;5087518;28;20050;-87
2023/10/01 00:39:54;;;;;;;1.95;1.85;;;15.40;99.90;;;;;;5084907;28;20051;-87
2023/10/01 00:42:27;;;;;;;2.22;2.13;;;15.30;99.90;;;;;;5084354;28;20054;-87
2023/10/01 00:44:53;;;;;;;2.10;2.00;;;15.30;99.90;;;;;;5086769;28;20455;-86
2023/10/01 00:47:21;;;;;;;2.20;2.10;;;15.40;99.90;;;;;;5069858;28;20051;-87
2023/10/01 00:49:49;;;;;;;2.10;2.00;;;15.50;99.90;;;;;;5087019;28;20047;-88
2023/10/01 00:52:18;;;;;;;2.20;2.10;;;15.30;99.90;;;;;;5067219;28;20039;-89
2023/10/01 00:54:47;;;;;;;2.20;2.10;;;15.30;99.90;;;;;;5088847;28;20039;-87
2023/10/01 00:57:16;;;;;;;2.10;2.00;;;15.40;99.90;;;;;;5082977;28;20131;-87
2023/10/01 00:59:43;;;;;;;2.15;2.05;;;15.50;99.90;;;;;;5068545;28;20070;-86
2023/10/01 01:02:10;;;;;;;2.20;2.10;;;15.50;99.90;;;;;;5079610;28;20051;-87
2023/10/01 01:04:42;;;;;;;2.20;2.10;;;15.50;99.90;;;;;;5068895;28;20443;-88
2023/10/01 01:07:14;;;;;;;2.08;1.98;;;15.60;99.90;;;;;;5085544;27;20062;-86
2023/10/01 01:09:42;;;;;;;2.03;1.92;;;15.50;99.90;;;;;;5087008;28;20516;-86
2023/10/01 01:12:08;;;;;;;2.05;1.95;;;15.40;99.90;;;;;;5070799;28;20059;-86
2023/10/01 01:14:34;;;;;;;2.03;1.92;;;15.50;99.90;;;;;;5086703;28;20044;-86
2023/10/01 01:17:00;;;;;;;2.00;1.90;;;15.50;99.90;;;;;;5087064;28;20051;-86
2023/10/01 01:19:26;;;;;;;2.10;2.00;;;15.60;99.90;;;;;;5066699;28;20047;-87
2023/10/01 01:21:52;;;;;;;2.10;2.00;;;15.50;99.90;;;;;;5065742;27;20759;-86
2023/10/01 01:24:19;;;;;;;2.20;2.10;;;15.50;99.90;;;;;;5085223;28;20043;-88
2023/10/01 01:26:51;;;;;;;2.00;1.90;;;15.40;99.90;;;;;;5082865;28;20043;-87
2023/10/01 01:29:33;;;;;;;2.00;1.90;;;15.40;99.90;;;;;;5084309;28;20110;-87
2023/10/01 01:32:15;;;;;;;2.17;2.08;;;15.40;99.90;;;;;;5086190;28;20051;-87
2023/10/01 01:34:41;;;;;;;2.15;2.05;;;15.40;99.90;;;;;;5070681;27;20143;-87
2023/10/01 01:37:08;;;;;;;2.17;2.08;;;15.50;99.90;;;;;;5067260;28;20048;-87
2023/10/01 01:39:49;;;;;;;2.10;2.00;;;15.40;99.90;;;;;;5068891;28;20054;-87
2023/10/01 01:42:22;;;;;;;2.17;2.08;;;15.40;99.90;;;;;;5082978;28;20044;-86
2023/10/01 01:47:33;;;;;;;2.05;1.95;;;15.40;99.90;;;;;;5084496;27;20056;-87
2023/10/01 01:50:09;;;;;;;2.00;1.90;;;15.40;99.90;;;;;;5084307;28;20061;-86
2023/10/01 01:52:38;;;;;;;2.20;2.10;;;15.50;99.90;;;;;;5087009;28;20159;-88
2023/10/01 01:55:23;;;;;;;2.10;2.00;;;15.50;99.90;;;;;;5088291;27;20040;-88
2023/10/01 01:58:08;;;;;;;1.98;1.88;;;15.50;99.90;;;;;;5083534;28;20043;-88
2023/10/01 02:01:01;;;;;;;2.00;1.90;;;15.50;99.90;;;;;;5067818;28;20044;-87
2023/10/01 02:03:33;;;;;;;1.98;1.88;;;15.50;99.90;;;;;;5087784;28;20047;-89
2023/10/01 02:06:00;;;;;;;2.08;1.98;;;15.60;99.90;;;;;;5085210;28;20047;-88
2023/10/01 02:08:44;;;;;;;2.05;1.95;;;15.50;99.90;;;;;;5060982;28;20055;-88
2023/10/01 02:11:10;;;;;;;2.28;2.17;;;15.50;99.90;;;;;;5058944;28;20052;-88
2023/10/01 02:13:45;;;;;;;2.15;2.05;;;15.50;99.90;;;;;;5082227;28;20044;-89
2023/10/01 02:19:35;;;;;;;2.10;2.00;;;15.50;99.90;;;;;;5089574;28;20055;-89
2023/10/01 02:21:59;;;;;;;2.30;2.20;;;15.40;99.90;;;;;;5084550;28;20077;-87
2023/10/01 02:24:45;;;;;;;2.13;2.03;;;15.50;99.90;;;;;;5069465;28;22480;-87
2023/10/01 02:27:18;;;;;;;2.20;2.10;;;15.40;99.90;;;;;;5069606;28;20123;-88
2023/10/01 02:32:28;;;;;;;2.30;2.20;;;15.50;99.90;;;;;;5089741;28;19924;-89
2023/10/01 02:34:57;;;;;;;2.20;2.10;;;15.50;99.90;;;;;;5087588;28;20100;-88
2023/10/01 02:37:29;;;;;;;2.15;2.05;;;15.50;99.90;;;;;;5090549;28;20055;-89
2023/10/01 02:40:00;;;;;;;2.17;2.08;;;15.50;99.90;;;;;;5084815;28;20547;-90
2023/10/01 02:42:30;;;;;;;2.20;2.10;;;15.50;99.90;;;;;;5069924;28;20099;-89
2023/10/01 02:44:55;;;;;;;2.28;2.17;;;15.50;99.90;;;;;;5088490;28;20047;-90
2023/10/01 02:47:23;;;;;;;2.28;2.17;;;15.50;99.90;;;;;;5085817;28;20047;-88
2023/10/01 02:49:54;;;;;;;2.20;2.10;;;15.50;99.90;;;;;;5082710;28;20051;-88
2023/10/01 02:52:22;;;;;;;2.25;2.15;;;15.50;99.90;;;;;;5085773;28;20044;-87
2023/10/01 02:54:54;;;;;;;2.17;2.08;;;15.50;99.90;;;;;;5086048;28;20134;-89
2023/10/01 02:57:26;;;;;;;2.15;2.05;;;15.50;99.90;;;;;;5083230;28;20048;-91
2023/10/01 03:02:38;;;;;;;;;;;15.50;99.90;;;;;;5087787;28;20047;-88
2023/10/01 03:05:07;;;;;;;2.30;2.20;;;15.40;99.90;;;;;;5072180;28;19935;-88
2023/10/01 03:07:38;;;;;;;2.28;2.17;;;15.40;99.90;;;;;;5070395;28;20044;-89
2023/10/01 03:10:26;;;;;;;2.25;2.15;;;15.50;99.90;;;;;;5068504;28;20130;-89
2023/10/01 03:12:57;;;;;;;2.30;2.20;;;15.40;99.90;;;;;;5081597;28;20043;-89
2023/10/01 03:15:35;;;;;;;2.17;2.08;;;15.50;99.90;;;;;;5069525;28;20423;-88
2023/10/01 03:18:08;;;;;;;2.28;2.17;;;15.40;99.90;;;;;;5072520;28;20657;-88
2023/10/01 03:23:06;;;;;;;2.17;2.08;;;15.50;99.90;;;;;;5085728;28;20078;-87
2023/10/01 03:25:56;;;;;;;2.22;2.13;;;15.40;99.90;;;;;;5084169;28;20094;-89
2023/10/01 03:28:26;;;;;;;2.03;1.92;;;15.40;99.90;;;;;;5084578;28;20071;-88
2023/10/01 03:31:06;;;;;;;2.25;2.15;;;15.40;99.90;;;;;;5090183;28;20046;-88
2023/10/01 03:33:33;;;;;;;2.00;1.90;;;15.40;99.90;;;;;;5104232;28;20040;-88
2023/10/01 03:35:59;;;;;;;2.22;2.13;;;15.40;99.90;;;;;;5085246;28;20055;-88
2023/10/01 03:38:25;;;;;;;2.00;1.90;;;15.40;99.90;;;;;;5093373;28;20130;-87
2023/10/01 03:40:59;;;;;;;2.13;2.03;;;15.40;99.90;;;;;;5094362;28;20039;-87
2023/10/01 03:43:32;;;;;;;2.00;1.90;;;15.40;99.90;;;;;;5084830;28;20051;-88
2023/10/01 03:46:19;;;;;;;2.30;2.20;;;15.50;99.90;;;;;;5084324;27;20055;-88
2023/10/01 03:48:58;;;;;;;2.15;2.05;;;15.50;99.90;;;;;;5089589;27;20055;-87
2023/10/01 03:51:28;;;;;;;1.98;1.88;;;15.40;99.90;;;;;;5107669;27;20069;-89
2023/10/01 03:53:59;;;;;;;2.28;2.17;;;15.50;99.90;;;;;;5089771;28;20039;-89
2023/10/01 03:56:30;;;;;;;2.10;2.00;;;15.50;99.90;;;;;;5087591;28;20078;-90
2023/10/01 03:58:56;;;;;;;2.10;2.00;;;15.40;99.90;;;;;;5096122;27;20601;-88
2023/10/01 04:01:26;;;;;;;2.03;1.92;;;15.40;99.90;;;;;;5072163;28;20100;-88
2023/10/01 04:04:00;;;;;;;2.00;1.90;;;15.40;99.90;;;;;;5086907;28;20119;-88
2023/10/01 04:06:30;;;;;;;2.28;2.17;;;15.50;99.90;;;;;;5106690;27;20916;-88
2023/10/01 04:08:56;;;;;;;2.10;2.00;;;15.50;99.90;;;;;;5087331;27;20043;-88
2023/10/01 04:11:41;;;;;;;2.33;2.22;;;15.40;99.90;;;;;;5094562;27;20062;-89
2023/10/01 04:14:17;;;;;;;2.30;2.20;;;15.50;99.90;;;;;;5092345;27;20048;-87
2023/10/01 04:16:56;;;;;;;2.10;2.00;;;15.50;99.90;;;;;;5107034;27;20078;-88
2023/10/01 04:19:24;;;;;;;2.03;1.92;;;15.40;99.90;;;;;;5103067;27;20035;-87
2023/10/01 04:21:50;;;;;;;2.20;2.10;;;15.40;99.90;;;;;;5085250;28;20060;-88
2023/10/01 04:24:19;;;;;;;2.10;2.00;;;15.40;99.90;;;;;;5100468;27;20123;-88
2023/10/01 04:26:46;;;;;;;2.00;1.90;;;15.40;99.90;;;;;;5088676;27;20053;-89
2023/10/01 04:29:16;;;;;;;2.10;2.00;;;15.50;99.90;;;;;;5093312;27;20548;-88
2023/10/01 04:31:47;;;;;;;2.10;2.00;;;15.50;99.90;;;;;;5093147;27;20044;-89
2023/10/01 04:34:14;;;;;;;2.35;2.25;;;15.30;99.90;;;;;;5108533;27;20068;-88
2023/10/01 04:36:44;;;;;;;2.13;2.03;;;15.40;99.90;;;;;;5085405;28;20047;-86
2023/10/01 04:39:10;;;;;;;2.10;2.00;;;15.40;99.90;;;;;;5090201;27;20058;-89
2023/10/01 04:41:37;;;;;;;2.20;2.10;;;15.40;99.90;;;;;;5104786;27;20066;-88
2023/10/01 04:44:06;;;;;;;2.08;1.98;;;15.40;99.90;;;;;;5091178;27;20112;-88
2023/10/01 04:46:37;;;;;;;2.00;1.90;;;15.40;99.90;;;;;;5085796;28;20055;-87
2023/10/01 04:49:26;;;;;;;2.10;2.00;;;15.50;99.90;;;;;;5105654;27;20055;-87
2023/10/01 04:52:00;;;;;;;2.00;1.90;;;15.40;99.90;;;;;;5098750;27;20048;-86
2023/10/01 04:54:28;;;;;;;2.00;1.90;;;15.50;99.90;;;;;;5104700;27;20459;-88
2023/10/01 04:56:57;;;;;;;2.10;2.00;;;15.40;99.90;;;;;;5105708;27;20093;-87
2023/10/01 04:59:24;;;;;;;2.00;1.90;;;15.50;99.90;;;;;;5088802;27;20093;-88
2023/10/01 05:01:56;;;;;;;2.00;1.90;;;15.50;99.90;;;;;;5110958;27;20111;-89
2023/10/01 05:04:27;;;;;;;2.00;1.90;;;15.50;99.90;;;;;;5106300;27;20040;-92
2023/10/01 05:07:04;;;;;;;2.20;2.10;;;15.40;99.90;;;;;;5086080;28;20051;-88
2023/10/01 05:09:33;;;;;;;2.10;2.00;;;15.40;99.90;;;;;;5090145;27;20074;-89
2023/10/01 05:12:01;;;;;;;2.20;2.10;;;15.40;99.90;;;;;;5090914;27;20047;-88
2023/10/01 05:14:32;;;;;;;2.38;2.28;;;15.50;99.90;;;;;;5090077;28;20035;-90
2023/10/01 05:17:07;;;;;;;2.25;2.15;;;15.40;99.90;;;;;;5090272;27;20112;-88
2023/10/01 05:19:37;;;;;;;2.13;2.03;;;15.40;99.90;;;;;;5095871;27;20072;-90
2023/10/01 05:22:03;;;;;;;2.20;2.10;;;15.50;99.90;;;;;;5112035;27;20054;-87
2023/10/01 05:24:34;;;;;;;2.20;2.10;;;15.50;99.90;;;;;;5102401;27;20067;-89
2023/10/01 05:27:08;;;;;;;2.30;2.20;;;15.50;99.90;;;;;;5099687;27;20040;-88
2023/10/01 05:29:34;;;;;;;2.50;2.30;;;15.40;99.90;;;;;;5096906;27;20444;-87
2023/10/01 05:32:01;;;;;;;2.20;2.10;;;15.40;99.90;;;;;;5098372;27;20043;-88
2023/10/01 05:34:28;;;;;;;2.20;2.10;;;15.50;99.90;;;;;;5108488;27;20121;-88
2023/10/01 05:37:08;;;;;;;2.20;2.10;;;15.50;99.90;;;;;;5107745;27;20084;-87
2023/10/01 05:39:55;;;;;;;2.10;2.00;;;15.50;99.90;;;;;;5113018;27;20109;-89
2023/10/01 05:42:34;;;;;;;2.17;2.08;;;15.40;99.90;;;;;;5080938;28;20054;-91
2023/10/01 05:44:59;;;;;;;2.10;2.00;;;15.50;99.90;;;;;;5093260;27;20035;-90
2023/10/01 05:47:41;;;;;;;2.08;1.98;;;15.50;99.90;;;;;;5104045;27;20047;-88
2023/10/01 05:50:14;;;;;;;2.30;2.20;;;15.50;99.90;;;;;;5112327;27;20096;-87
2023/10/01 05:52:40;;;;;;;2.30;2.20;;;15.50;99.90;;;;;;5101671;27;20043;-89
2023/10/01 05:55:12;;;;;;;2.20;2.10;;;15.50;99.90;;;;;;5085559;28;20047;-87
2023/10/01 05:57:39;;;;;;;2.20;2.10;;;15.50;99.90;;;;;;5114035;27;20039;-89
2023/10/01 06:00:16;;;;;;;2.10;2.00;;;15.50;99.90;;;;;;5105354;27;20473;-87
2023/10/01 06:03:06;;;;;;;2.20;2.10;;;15.50;99.90;;;;;;5085334;28;20043;-87
2023/10/01 06:05:33;;;;;;;2.30;2.20;;;15.50;99.90;;;;;;5102645;27;20047;-88
2023/10/01 06:08:49;;;;;;;2.10;2.00;;;15.60;99.90;;;;;;5114017;27;20489;-88
2023/10/01 06:11:09;;;;;;;2.20;2.10;;;15.50;99.90;;;;;;5092012;27;20051;-87
2023/10/01 06:13:48;;;;;;;2.20;2.10;;;15.50;99.90;;;;;;5096531;27;20076;-90
2023/10/01 06:16:15;;;;;;;2.20;2.10;;;15.50;99.90;;;;;;5082719;27;20703;-93
2023/10/01 06:18:52;;;;;;;2.20;2.10;;;15.50;99.90;;;;;;5092543;28;20043;-92
2023/10/01 06:21:28;;;;;;;2.20;2.10;;;15.50;99.90;;;;;;5103218;27;20040;-85
2023/10/01 06:24:10;;;;;;;2.40;2.30;;;15.60;99.90;;;;;;5106961;27;20046;-87
2023/10/01 06:26:36;;;;;;;2.20;2.10;;;15.50;99.90;;;;;;5084034;28;20047;-89
2023/10/01 06:29:04;;;;;;;2.20;2.10;;;15.60;99.90;;;;;;5082811;28;20078;-89
2023/10/01 06:34:23;;;;;;;2.20;2.10;;;15.60;99.90;;;;;;5106547;28;20039;-91
2023/10/01 06:36:57;;;;;;;2.30;2.20;;;15.60;99.90;;;;;;5106202;28;20062;-86
2023/10/01 06:39:32;;;;;;;2.30;2.20;;;15.60;99.90;;;;;;5106583;28;20051;-85
2023/10/01 06:44:52;;;;;;;2.30;2.20;;;15.70;99.90;;;;;;5105541;28;20058;-87
2023/10/01 06:47:28;;;;;;;2.28;2.17;;;15.80;99.90;;;;;;5089310;28;20050;-87
2023/10/01 06:49:59;;;;;;;2.30;2.20;;;15.70;99.90;;;;;;5102498;28;20044;-87
2023/10/01 06:52:32;;;;;;;2.10;2.00;;;15.80;99.90;;;;;;5082887;28;20488;-87
2023/10/01 06:55:01;;;;;;;2.13;2.03;;;15.80;99.90;;;;;;5095774;28;20086;-90
2023/10/01 06:57:33;;;;;;;2.20;2.10;;;15.80;99.90;;;;;;5104196;28;20043;-88
2023/10/01 07:00:00;;;;;;;2.00;1.90;;;15.80;99.90;;;;;;5097818;28;20408;-88
2023/10/01 07:02:29;;;;;;;2.20;2.10;;;15.80;99.90;;;;;;5083341;28;20101;-90
2023/10/01 07:04:58;;;;;;;2.10;2.00;;;15.80;99.90;;;;;;5109168;28;20068;-87
2023/10/01 07:07:28;;;;;;;2.10;2.00;;;15.80;99.90;;;;;;5116603;28;20052;-87
2023/10/01 07:09:57;;;;;;;1.95;1.85;;;15.90;99.90;;;;;;5083767;28;20122;-90
2023/10/01 07:12:24;;;;;;;2.20;2.10;;;15.90;99.90;;;;;;5086549;28;20052;-90
2023/10/01 07:14:51;;;;;;;2.00;1.90;;;15.80;99.90;;;;;;5085162;28;20047;-89
2023/10/01 07:17:24;;;;;;;2.00;1.90;;;15.90;99.90;;;;;;5087397;28;20050;-88
2023/10/01 07:20:01;;;;;;;2.10;2.00;;;15.80;99.90;;;;;;5078930;28;20043;-87
2023/10/01 07:22:38;;;;;;;2.22;2.13;;;15.90;99.90;;;;;;5087504;27;20130;-87
2023/10/01 07:25:04;;;;;;;2.25;2.15;;;15.90;99.90;;;;;;5082589;28;20040;-86
2023/10/01 07:27:30;;;;;;;2.10;2.00;;;16.00;99.90;;;;;;5110035;27;20073;-88
2023/10/01 07:29:56;;;;;;;2.08;1.98;;;16.00;99.90;;;;;;5091511;27;20051;-86
2023/10/01 07:32:24;;;;;;;2.15;2.05;;;16.00;99.90;;;;;;5114321;27;21732;-87
2023/10/01 07:34:58;;;;;;;1.90;1.80;;;16.20;99.90;;;;;;5104137;27;20412;-88
2023/10/01 07:37:25;;;;;;;;;;;16.20;99.90;;;;;;5082954;28;20051;-87
2023/10/01 07:39:59;;;;;;;2.00;1.90;;;16.30;99.90;;;;;;5108532;27;20847;-88
2023/10/01 07:42:28;;;;;;;2.00;1.90;;;16.30;99.90;;;;;;5086892;28;20066;-90
2023/10/01 07:45:00;;;;;;;1.77;1.67;;;16.40;99.90;;;;;;5091739;27;20043;-93
2023/10/01 07:47:32;;;;;;;2.00;1.90;;;16.30;99.90;;;;;;5090805;28;20514;-88
2023/10/01 07:50:02;;;;;;;1.80;1.70;;;16.50;99.90;;;;;;5085288;27;20047;-89
2023/10/01 07:52:28;;;;;;;1.95;1.85;;;16.40;99.90;;;;;;5080817;28;20047;-89
2023/10/01 07:55:26;;;;;;;1.88;1.77;;;16.60;99.90;;;;;;5099016;27;20056;-93
2023/10/01 07:57:48;;;;;;;2.00;1.90;;;16.60;99.90;;;;;;5109331;27;20078;-92
2023/10/01 08:00:26;;;;;;;1.80;1.70;;;16.60;99.90;;;;;;5088705;27;20489;-88
2023/10/01 08:06:12;;;;;;;1.58;1.48;;;16.90;99.90;;;;;;5037674;28;20055;-86
2023/10/01 08:08:47;;;;;;;1.63;1.52;;;17.00;99.90;;;;;;5021659;28;20142;-90
2023/10/01 08:13:57;;;;;;;;;;;17.30;99.90;;;;;;5103632;27;20047;-87
2023/10/01 08:16:23;;;;;;;1.38;1.35;;;17.60;99.90;;;;;;5098041;27;20327;-89
2023/10/01 08:18:57;;;;;;;1.23;1.23;;;17.70;99.90;;;;;;5103168;27;20387;-92
2023/10/01 08:21:30;;;;;;;;;;;17.60;99.90;;;;;;5084790;28;20043;-86
2023/10/01 08:23:57;;;;;;;1.30;1.30;;;17.60;99.90;;;;;;5086786;28;19976;-88
2023/10/01 08:26:43;;;;;;;1.20;1.20;;;17.50;99.90;;;;;;5117489;27;20054;-88
2023/10/01 08:29:09;;;;;;;1.20;1.20;;;17.50;99.90;;;;;;5093839;28;20052;-87
2023/10/01 08:34:23;;;;;;;1.15;1.15;;;17.40;99.90;;;;;;5111921;27;20135;-87
2023/10/01 08:37:06;;;;;;;1.00;1.00;;;17.40;99.90;;;;;;5096320;27;20103;-86
2023/10/01 08:39:35;;;;;;;1.02;1.02;;;17.30;99.90;;;;;;5085456;28;20048;-91
2023/10/01 08:42:09;;;;;;;1.10;1.10;;;17.30;99.90;;;;;;5092290;27;20040;-88
2023/10/01 08:44:50;;;;;;;1.10;1.10;;;17.40;99.90;;;;;;5081975;27;20035;-88
2023/10/01 08:47:21;;;;;;;1.05;1.05;;;17.40;99.90;;;;;;5099022;27;20056;-94
2023/10/01 08:49:51;;;;;;;1.15;1.15;;;17.40;99.90;;;;;;5085118;27;20053;-88
2023/10/01 08:52:25;;;;;;;1.13;1.13;;;17.40;99.90;;;;;;5091877;27;20500;-88
2023/10/01 08:54:53;;;;;;;1.20;1.20;;;17.40;99.90;;;;;;5086144;27;20051;-87
2023/10/01 08:57:45;;;;;;;1.20;1.20;;;17.50;99.90;;;;;;5091835;27;20082;-85
2023/10/01 09:00:17;;;;;;;1.10;1.10;;;17.60;99.90;;;;;;5105380;27;20039;-84
2023/10/01 09:02:55;;;;;;;1.10;1.10;;;17.60;99.90;;;;;;5097463;27;20043;-84
2023/10/01 09:05:23;;;;;;;1.10;1.10;;;17.60;99.90;;;;;;5088639;27;20485;-87
2023/10/01 09:10:52;;;;;;;1.10;1.10;;;17.70;99.90;;;;;;5108953;27;20044;-87
2023/10/01 09:13:21;;;;;;;1.10;1.10;;;18.00;99.90;;;;;;5084128;28;20092;-85
2023/10/01 09:15:56;;;;;;;1.17;1.17;;;18.10;99.90;;;;;;5098864;27;20043;-86
2023/10/01 09:18:23;;;;;;;1.10;1.10;;;18.20;99.90;;;;;;5095427;27;20520;-91
2023/10/01 09:21:20;;;;;;;1.00;1.00;;;18.30;99.90;;;;;;5098207;27;20039;-89
2023/10/01 09:23:55;;;;;;;1.00;1.00;;;18.30;99.90;;;;;;5103912;27;20508;-86
2023/10/01 09:26:42;;;;;;;1.00;1.00;;;18.40;99.90;;;;;;5098279;27;20062;-93
2023/10/01 09:29:32;;;;;;;1.00;1.00;;;18.40;99.90;;;;;;5101162;27;20540;-88
2023/10/01 09:31:59;;;;;;;0.90;0.90;;;18.50;99.90;;;;;;5101203;27;20043;-88
2023/10/01 09:34:35;;;;;;;1.00;1.00;;;18.50;99.90;;;;;;5099421;27;20051;-87
2023/10/01 09:37:06;;;;;;;0.82;0.82;;;18.60;99.90;;;;;;5103731;27;20043;-85
2023/10/01 09:39:41;;;;;;;0.80;0.80;;;18.80;99.90;;;;;;5111917;27;20043;-87
2023/10/01 09:42:24;;;;;;;0.80;0.80;;;18.80;99.90;;;;;;5077256;27;20140;-90
2023/10/01 09:44:55;;;;;;;0.70;0.70;;;18.90;99.90;;;;;;5084442;27;20039;-87
2023/10/01 09:47:24;;;;;;;0.80;0.80;;;19.40;99.90;;;;;;5091154;28;20079;-92
2023/10/01 09:50:00;;;;;;;0.90;0.90;;;19.50;99.90;;;;;;5081029;28;20488;-87
2023/10/01 09:52:31;;;;;;;0.90;0.90;;;19.70;99.90;;;;;;5100820;27;20051;-86
2023/10/01 09:55:09;;;;;;;0.85;0.85;;;20.00;99.90;;;;;;5096671;27;20127;-87
2023/10/01 09:57:37;;;;;;;0.70;0.70;;;20.00;99.90;;;;;;5098392;27;20424;-86
2023/10/01 10:00:17;;;;;;;0.80;0.80;;;20.00;99.90;;;;;;5110399;27;20051;-87
2023/10/01 10:02:53;;;;;;;0.80;0.80;;;19.90;99.90;;;;;;5097344;27;20086;-88
2023/10/01 10:05:26;;;;;;;0.90;0.90;;;19.80;99.90;;;;;;5113435;27;20507;-83
2023/10/01 10:07:56;;;;;;;0.80;0.80;;;19.80;99.90;;;;;;5099531;27;20047;-84
2023/10/01 10:10:26;;;;;;;0.70;0.70;;;20.10;99.90;;;;;;5096323;27;20767;-85
2023/10/01 10:13:15;;;;;;;0.63;0.63;;;20.50;99.90;;;;;;5102251;27;20077;-90
2023/10/01 10:16:00;;;;;;;0.70;0.70;;;20.40;99.90;;;;;;5083393;28;20047;-88
2023/10/01 10:18:32;;;;;;;0.70;0.70;;;20.40;99.90;;;;;;5103456;27;20054;-88
2023/10/01 10:21:05;;;;;;;0.63;0.63;;;20.40;99.90;;;;;;5086807;28;20407;-86
2023/10/01 10:23:54;;;;;;;0.70;0.70;;;20.40;99.90;;;;;;5085028;27;20046;-90
2023/10/01 10:29:56;;;;;;;0.70;0.70;;;20.30;99.90;;;;;;5105264;27;20462;-90
2023/10/01 10:32:30;;;;;;;0.70;0.70;;;20.60;99.90;;;;;;5106183;27;20073;-89
2023/10/01 10:35:06;;;;;;;0.68;0.68;;;20.60;99.90;;;;;;5077650;28;20043;-87
2023/10/01 10:37:38;;;;;;;0.70;0.70;;;20.70;99.90;;;;;;5079597;28;20048;-88
2023/10/01 10:43:16;;;;;;;0.82;0.82;;;20.60;99.90;;;;;;5100364;28;20131;-87
2023/10/01 10:45:58;;;;;;;0.73;0.73;;;20.50;99.90;;;;;;5079438;28;20059;-93
2023/10/01 10:49:10;;;;;;;0.70;0.70;;;20.80;99.90;;;;;;5096334;28;20760;-90
2023/10/01 10:51:49;;;;;;;0.70;0.70;;;20.90;99.90;;;;;;5103789;28;20077;-89
2023/10/01 10:54:37;;;;;;;0.60;0.60;;;20.80;99.90;;;;;;5103229;28;20039;-92
2023/10/01 10:57:07;;;;;;;0.60;0.60;;;21.40;99.90;;;;;;5105997;27;20077;-92
2023/10/01 10:59:36;;;;;;;0.70;0.70;;;21.60;99.90;;;;;;5087602;27;20119;-89
2023/10/01 11:02:03;;;;;;;0.70;0.70;;;21.70;99.90;;;;;;5096831;27;20110;-88
2023/10/01 11:04:30;;;;;;;0.60;0.60;;;21.60;99.90;;;;;;5094195;27;20104;-88
2023/10/01 11:07:08;;;;;;;0.70;0.70;;;21.70;99.90;;;;;;5087248;28;20112;-88
2023/10/01 11:09:37;;;;;;;0.70;0.70;;;21.90;99.90;;;;;;5112387;27;20039;-91
2023/10/01 11:12:28;;;;;;;0.77;0.77;;;22.00;99.90;;;;;;5112008;27;20071;-91
2023/10/01 11:15:34;;;;;;;0.80;0.80;;;22.10;99.90;;;;;;5107428;27;20043;-94
2023/10/01 11:18:11;;;;;;;;;;;;;;;;;;;;;
2023/10/01 11:20:45;;;;;;;0.75;0.75;;;22.60;99.90;;;;;;5101564;27;20435;-88
2023/10/01 11:23:23;;;;;;;0.80;0.80;;;22.20;99.90;;;;;;5104564;27;20047;-92
2023/10/01 11:26:06;;;;;;;0.75;0.75;;;22.00;99.90;;;;;;5086140;28;20063;-94
2023/10/01 11:28:52;;;;;;;0.73;0.73;;;22.10;99.90;;;;;;5085603;28;20055;-89
2023/10/01 11:31:31;;;;;;;0.75;0.75;;;22.20;99.90;;;;;;5087157;27;20078;-92
2023/10/01 11:34:30;;;;;;;0.75;0.75;;;22.50;99.90;;;;;;5086727;28;20039;-88
2023/10/01 11:37:18;;;;;;;0.75;0.75;;;22.80;99.90;;;;;;5082819;28;20051;-87
2023/10/01 11:39:52;;;;;;;1.40;1.30;;;22.90;99.90;;;;;;5080054;27;20162;-90
2023/10/01 11:42:35;;;;;;;;;;;23.10;99.90;;;;;;5071010;28;20056;-89
2023/10/01 11:45:32;;;;;;;1.02;1.02;;;23.20;99.90;;;;;;5103003;27;19959;-91
2023/10/01 11:48:19;;;;;;;0.57;0.57;;;23.20;99.90;;;;;;5100327;27;20051;-87
2023/10/01 11:50:57;;;;;;;0.75;0.70;;;23.30;99.90;;;;;;5080273;28;20047;-96
2023/10/01 11:53:28;;;;;;;0.65;0.65;;;23.30;99.90;;;;;;5082620;27;20082;-87
2023/10/01 11:56:01;;;;;;;0.65;0.65;;;23.20;99.90;;;;;;5098417;27;20125;-86
2023/10/01 11:58:32;;;;;;;0.73;0.73;;;23.10;99.90;;;;;;5081434;27;20046;-84
2023/10/01 12:01:00;;;;;;;0.55;0.55;;;23.00;99.90;;;;;;5097107;27;20056;-84
2023/10/01 12:03:27;;;;;;;0.77;0.77;;;23.00;99.90;;;;;;5105791;27;20043;-83
2023/10/01 12:05:56;;;;;;;0.70;0.70;;;22.90;99.90;;;;;;5100533;27;20048;-85
2023/10/01 12:08:35;;;;;;;0.95;0.95;;;22.90;99.90;;;;;;5087675;27;20046;-88
2023/10/01 12:14:04;;;;;;;0.88;0.88;;;23.00;99.90;;;;;;5096723;27;20039;-87
2023/10/01 12:16:30;;;;;;;0.77;0.77;;;22.90;99.90;;;;;;5103951;27;20047;-92
2023/10/01 12:21:43;;;;;;;0.82;0.82;;;22.90;99.90;;;;;;5101883;27;20054;-88
2023/10/01 12:24:15;;;;;;;0.73;0.73;;;23.00;99.90;;;;;;5108091;27;20044;-86
2023/10/01 12:26:45;;;;;;;0.70;0.70;;;23.10;99.90;;;;;;5079563;27;20051;-88
2023/10/01 12:29:13;;;;;;;0.80;0.80;;;23.20;99.90;;;;;;5099053;27;20090;-89
2023/10/01 12:31:45;;;;;;;0.65;0.65;;;23.10;99.90;;;;;;5075200;27;20073;-85
2023/10/01 12:34:14;;;;;;;0.73;0.73;;;23.20;99.90;;;;;;5084744;27;20043;-87
2023/10/01 12:36:44;;;;;;;0.80;0.80;;;23.30;99.90;;;;;;5082712;27;20517;-87
2023/10/01 12:45:13;;;;;;;0.90;0.90;;;23.20;99.90;;;;;;5096536;27;20102;-89
2023/10/01 12:47:50;;;;;;;1.10;1.10;;;23.20;99.90;;;;;;5102849;27;20050;-87
2023/10/01 12:50:26;;;;;;;1.30;1.27;;;23.30;99.90;;;;;;5085719;28;20050;-87
2023/10/01 12:55:53;;;;;;;0.77;0.77;;;23.60;99.90;;;;;;5095610;27;20520;-91
2023/10/01 12:58:35;;;;;;;0.82;0.82;;;23.90;99.90;;;;;;5084184;28;20081;-91
2023/10/01 13:01:02;;;;;;;1.10;1.10;;;23.90;99.90;;;;;;5110640;27;20049;-83
2023/10/01 13:03:42;;;;;;;0.73;0.73;;;23.90;99.90;;;;;;5089181;28;20122;-86
2023/10/01 13:06:12;;;;;;;0.85;0.85;;;23.70;99.90;;;;;;5109743;27;20047;-92
2023/10/01 13:08:41;;;;;;;0.90;0.90;;;23.80;99.90;;;;;;5113054;27;20043;-91
2023/10/01 13:11:07;;;;;;;0.85;0.85;;;23.80;99.90;;;;;;5091962;27;20039;-86
2023/10/01 13:13:35;;;;;;;0.73;0.73;;;23.70;99.90;;;;;;5098586;27;20136;-88
2023/10/01 13:16:02;;;;;;;0.73;0.73;;;23.70;99.90;;;;;;5104691;27;20520;-89
2023/10/01 13:18:32;;;;;;;0.95;0.95;;;23.90;99.90;;;;;;5091562;27;20758;-87
2023/10/01 13:21:09;;;;;;;0.93;0.93;;;23.80;99.90;;;;;;5082787;27;20067;-87
2023/10/01 13:23:43;;;;;;;0.68;0.68;;;23.90;99.90;;;;;;5081684;28;20370;-86
2023/10/01 13:26:24;;;;;;;0.30;0.30;;;23.90;99.90;;;;;;5080932;27;20663;-92
2023/10/01 13:28:54;;;;;;;0.93;0.93;;;23.70;99.90;;;;;;5097750;27;20044;-93
2023/10/01 13:33:56;;;;;;;0.87;0.87;;;23.50;99.90;;;;;;5110379;27;20047;-87
2023/10/01 13:36:35;;;;;;;0.80;0.80;;;23.70;99.90;;;;;;5097457;27;20312;-89
2023/10/01 14:08:46;;;;;;;0.85;0.85;;;23.30;99.90;;;;;;5094533;27;20478;-90
2023/10/01 14:11:39;;;;;;;0.85;0.85;;;23.50;99.90;;;;;;5108060;27;20054;-94
2023/10/01 14:14:08;;;;;;;0.80;0.80;;;23.70;99.90;;;;;;5105797;27;20056;-88
2023/10/01 14:16:36;;;;;;;0.73;0.73;;;24.00;99.90;;;;;;5083217;28;20449;-91
2023/10/01 14:19:14;;;;;;;0.63;0.63;;;24.00;99.90;;;;;;5091533;28;20114;-88
2023/10/01 14:21:40;;;;;;;0.70;0.70;;;24.20;99.90;;;;;;5103913;27;20439;-88
2023/10/01 14:24:21;;;;;;;0.30;0.30;;;24.20;99.90;;;;;;5100358;27;20067;-87
2023/10/01 14:26:50;;;;;;;0.73;0.73;;;24.10;99.90;;;;;;5090137;28;20104;-86
2023/10/01 14:29:22;;;;;;;0.63;0.63;;;23.80;99.90;;;;;;5098516;28;20044;-93
2023/10/01 14:31:52;;;;;;;0.38;0.38;;;23.60;99.90;;;;;;5102216;28;20126;-86
2023/10/01 14:34:20;;;;;;;0.68;0.68;;;23.40;99.90;;;;;;5074659;28;20064;-86
2023/10/01 14:36:47;;;;;;;0.63;0.63;;;23.10;99.90;;;;;;5110084;27;20047;-84
2023/10/01 14:39:14;;;;;;;0.30;0.30;;;23.20;99.90;;;;;;5087904;28;20412;-92
2023/10/01 14:41:45;;;;;;;0.73;0.73;;;23.10;99.90;;;;;;5082972;28;20507;-93
2023/10/01 14:44:14;;;;;;;0.73;0.73;;;23.00;99.90;;;;;;5100875;28;20067;-85